createdAt,value
2023-04-26T00:00:45.258Z,22.06
2023-04-26T00:01:45.302Z,22.04
2023-04-26T00:02:45.395Z,22.06
2023-04-26T00:03:45.664Z,21.98
2023-04-26T00:04:45.557Z,22.04
2023-04-26T00:05:45.529Z,22.06
2023-04-26T00:06:45.406Z,22.03
2023-04-26T00:07:45.407Z,22.04
2023-04-26T00:08:45.424Z,22.06
2023-04-26T00:09:45.437Z,22.07
2023-04-26T00:10:45.397Z,22.06
2023-04-26T00:11:45.400Z,22.07
2023-04-26T00:12:45.394Z,22.07
2023-04-26T00:13:45.401Z,22.06
2023-04-26T00:14:45.444Z,22.07
2023-04-26T00:15:45.395Z,22.07
2023-04-26T00:16:45.494Z,22.03
2023-04-26T00:17:45.407Z,22.03
2023-04-26T00:18:45.412Z,22.04
2023-04-26T00:19:45.420Z,22.07
2023-04-26T00:20:45.428Z,22.06
2023-04-26T00:21:45.412Z,22.10
2023-04-26T00:22:45.399Z,22.06
2023-04-26T00:23:45.397Z,22.09
2023-04-26T00:24:45.419Z,22.10
2023-04-26T00:25:45.393Z,22.06
2023-04-26T00:26:45.391Z,22.06
2023-04-26T00:27:45.384Z,22.01
2023-04-26T00:28:45.416Z,22.06
2023-04-26T00:29:45.428Z,22.06
2023-04-26T00:30:45.417Z,22.10
2023-04-26T00:31:45.448Z,22.10
2023-04-26T00:32:45.511Z,22.09
2023-04-26T00:33:45.440Z,22.12
2023-04-26T00:34:45.422Z,22.04
2023-04-26T00:35:45.447Z,22.09
2023-04-26T00:36:45.430Z,22.12
2023-04-26T00:37:45.451Z,22.09
2023-04-26T00:38:45.449Z,22.07
2023-04-26T00:39:45.465Z,22.13
2023-04-26T00:40:45.418Z,22.07
2023-04-26T00:41:45.430Z,22.09
2023-04-26T00:42:45.468Z,22.07
2023-04-26T00:43:45.535Z,22.10
2023-04-26T00:44:45.644Z,22.10
2023-04-26T00:45:45.702Z,22.10
2023-04-26T00:46:45.678Z,22.09
2023-04-26T00:47:45.720Z,22.12
2023-04-26T00:48:45.798Z,22.13
2023-04-26T00:49:45.819Z,22.10
2023-04-26T00:50:45.855Z,22.15
2023-04-26T00:51:45.920Z,22.12
2023-04-26T00:52:45.978Z,22.13
2023-04-26T00:53:46.031Z,22.10
2023-04-26T00:54:46.103Z,22.12
2023-04-26T00:55:46.189Z,22.10
2023-04-26T00:56:46.139Z,22.16
2023-04-26T00:57:46.160Z,22.10
2023-04-26T00:58:46.210Z,22.16
2023-04-26T00:59:46.259Z,22.16
2023-04-26T01:32:23.521Z,22.28
2023-04-26T01:33:23.292Z,22.25
2023-04-26T01:34:23.302Z,22.22
2023-04-26T01:35:23.488Z,22.19
2023-04-26T01:36:23.272Z,22.16
2023-04-26T01:37:23.286Z,22.19
2023-04-26T01:38:23.262Z,22.12
2023-04-26T01:39:23.243Z,22.16
2023-04-26T01:40:23.488Z,22.21
2023-04-26T01:41:23.230Z,22.10
2023-04-26T01:42:23.265Z,22.18
2023-04-26T01:43:23.313Z,22.16
2023-04-26T01:44:23.329Z,22.15
2023-04-26T01:45:23.488Z,22.19
2023-04-26T01:46:23.467Z,22.16
2023-04-26T01:47:23.453Z,22.18
2023-04-26T01:48:23.434Z,22.22
2023-04-26T01:49:23.458Z,22.18
2023-04-26T01:50:23.995Z,22.16
2023-04-26T01:51:23.544Z,22.18
2023-04-26T01:52:23.539Z,22.18
2023-04-26T01:53:23.595Z,22.15
2023-04-26T01:54:23.612Z,22.19
2023-04-26T01:55:23.980Z,22.18
2023-04-26T01:56:23.680Z,22.21
2023-04-26T01:57:23.727Z,22.18
2023-04-26T01:58:23.753Z,22.19
2023-04-26T01:59:23.756Z,22.15
2023-04-26T02:00:23.972Z,22.19
2023-04-26T02:01:23.922Z,22.19
2023-04-26T02:02:23.872Z,22.22
2023-04-26T02:03:23.928Z,22.16
2023-04-26T02:04:23.833Z,22.19
2023-04-26T02:05:23.919Z,22.19
2023-04-26T02:06:23.909Z,22.19
2023-04-26T02:07:23.923Z,22.19
2023-04-26T02:08:23.953Z,22.22
2023-04-26T02:09:23.991Z,22.24
2023-04-26T02:10:24.037Z,22.21
2023-04-26T02:11:24.041Z,22.27
2023-04-26T02:12:24.047Z,22.22
2023-04-26T02:13:24.088Z,22.22
2023-04-26T02:14:24.101Z,22.22
2023-04-26T02:15:24.136Z,22.25
2023-04-26T02:16:24.218Z,22.22
2023-04-26T02:17:24.187Z,22.27
2023-04-26T02:18:24.210Z,22.19
2023-04-26T02:19:24.267Z,22.26
2023-04-26T02:20:24.266Z,22.22
2023-04-26T02:21:25.999Z,22.21
2023-04-26T02:22:24.341Z,22.25
2023-04-26T02:23:24.354Z,22.22
2023-04-26T02:24:24.417Z,22.30
2023-04-26T02:25:24.422Z,22.27
2023-04-26T02:26:24.448Z,22.28
2023-04-26T02:27:24.485Z,22.28
2023-04-26T02:28:24.541Z,22.27
2023-04-26T02:29:36.197Z,22.25
2023-04-26T02:30:25.556Z,22.27
2023-04-26T02:31:24.602Z,22.28
2023-04-26T02:32:24.563Z,22.25
2023-04-26T02:33:24.548Z,22.33
2023-04-26T02:34:24.528Z,22.34
2023-04-26T02:35:24.526Z,22.30
2023-04-26T02:36:24.529Z,22.28
2023-04-26T02:37:24.506Z,22.30
2023-04-26T02:38:24.477Z,22.31
2023-04-26T02:39:24.468Z,22.30
2023-04-26T02:40:24.492Z,22.33
2023-04-26T02:41:24.456Z,22.28
2023-04-26T02:42:24.457Z,22.31
2023-04-26T02:43:24.456Z,22.25
2023-04-26T02:44:24.473Z,22.24
2023-04-26T02:45:24.497Z,22.31
2023-04-26T02:46:24.561Z,22.27
2023-04-26T02:47:24.588Z,22.27
2023-04-26T02:48:24.611Z,22.27
2023-04-26T02:49:24.654Z,22.28
2023-04-26T02:50:24.690Z,22.27
2023-04-26T02:51:24.734Z,22.28
2023-04-26T02:52:24.735Z,22.31
2023-04-26T02:53:24.752Z,22.33
2023-04-26T02:54:24.798Z,22.30
2023-04-26T02:55:24.836Z,22.33
2023-04-26T02:56:24.861Z,22.27
2023-04-26T02:57:24.874Z,22.30
2023-04-26T02:58:24.905Z,22.31
2023-04-26T02:59:24.913Z,22.31
2023-04-26T03:00:24.934Z,22.30
2023-04-26T03:01:25.050Z,22.31
2023-04-26T03:02:25.108Z,22.31
2023-04-26T03:03:25.104Z,22.33
2023-04-26T03:04:25.036Z,22.30
2023-04-26T03:05:25.048Z,22.36
2023-04-26T03:06:25.073Z,22.33
2023-04-26T03:07:25.112Z,22.33
2023-04-26T03:08:25.122Z,22.31
2023-04-26T03:09:25.157Z,22.34
2023-04-26T03:10:25.181Z,22.34
2023-04-26T03:11:25.209Z,22.33
2023-04-26T03:12:25.243Z,22.30
2023-04-26T03:13:25.313Z,22.30
2023-04-26T03:14:25.320Z,22.36
2023-04-26T03:15:25.364Z,22.36
2023-04-26T03:16:25.391Z,22.30
2023-04-26T03:17:25.397Z,22.39
2023-04-26T03:18:25.380Z,22.34
2023-04-26T03:19:25.413Z,22.38
2023-04-26T03:20:25.455Z,22.33
2023-04-26T03:21:25.485Z,22.39
2023-04-26T03:22:25.516Z,22.34
2023-04-26T03:23:25.546Z,22.39
2023-04-26T03:24:25.554Z,22.36
2023-04-26T03:25:25.573Z,22.33
2023-04-26T03:26:25.583Z,22.40
2023-04-26T03:27:25.620Z,22.39
2023-04-26T03:28:25.662Z,22.37
2023-04-26T03:29:25.683Z,22.31
2023-04-26T03:30:25.722Z,22.36
2023-04-26T03:31:25.746Z,22.37
2023-04-26T03:32:25.771Z,22.34
2023-04-26T03:33:25.771Z,22.39
2023-04-26T03:34:25.816Z,22.37
2023-04-26T03:35:25.845Z,22.34
2023-04-26T03:36:25.892Z,22.36
2023-04-26T03:37:25.899Z,22.28
2023-04-26T03:38:25.920Z,22.37
2023-04-26T03:39:25.948Z,22.34
2023-04-26T03:40:25.978Z,22.34
2023-04-26T03:41:25.975Z,22.36
2023-04-26T03:42:25.996Z,22.36
2023-04-26T03:43:26.051Z,22.34
2023-04-26T03:44:26.052Z,22.34
2023-04-26T03:45:26.092Z,22.40
2023-04-26T03:46:26.182Z,22.33
2023-04-26T03:47:26.210Z,22.33
2023-04-26T03:48:26.184Z,22.30
2023-04-26T03:49:26.207Z,22.39
2023-04-26T03:50:26.286Z,22.31
2023-04-26T03:51:26.268Z,22.34
2023-04-26T03:52:26.302Z,22.36
2023-04-26T03:53:26.341Z,22.34
2023-04-26T03:54:26.376Z,22.34
2023-04-26T03:55:26.401Z,22.34
2023-04-26T03:56:26.388Z,22.31
2023-04-26T03:57:26.421Z,22.34
2023-04-26T03:58:26.438Z,22.34
2023-04-26T03:59:26.490Z,22.34
2023-04-26T04:00:26.524Z,22.36
2023-04-26T04:01:26.532Z,22.33
2023-04-26T04:02:26.691Z,22.31
2023-04-26T04:03:26.817Z,22.34
2023-04-26T04:04:26.791Z,22.34
2023-04-26T04:05:26.728Z,22.31
2023-04-26T04:06:26.719Z,22.34
2023-04-26T04:07:26.709Z,22.28
2023-04-26T04:08:26.703Z,22.31
2023-04-26T04:09:26.732Z,22.31
2023-04-26T04:10:26.754Z,22.36
2023-04-26T04:11:26.756Z,22.33
2023-04-26T04:12:26.817Z,22.30
2023-04-26T04:13:26.835Z,22.34
2023-04-26T04:14:26.846Z,22.36
2023-04-26T04:15:26.893Z,22.33
2023-04-26T04:16:26.937Z,22.34
2023-04-26T04:17:26.974Z,22.31
2023-04-26T04:18:26.981Z,22.30
2023-04-26T04:19:27.021Z,22.33
2023-04-26T04:20:27.032Z,22.31
2023-04-26T04:21:27.071Z,22.31
2023-04-26T04:22:27.106Z,22.31
2023-04-26T04:23:27.130Z,22.30
2023-04-26T04:24:27.181Z,22.30
2023-04-26T04:25:27.175Z,22.27
2023-04-26T04:26:27.182Z,22.33
2023-04-26T04:27:27.205Z,22.25
2023-04-26T04:28:27.212Z,22.27
2023-04-26T04:29:27.250Z,22.28
2023-04-26T04:30:27.262Z,22.25
2023-04-26T04:31:27.342Z,22.27
2023-04-26T04:32:27.361Z,22.29
2023-04-26T04:33:27.407Z,22.25
2023-04-26T04:34:27.371Z,22.27
2023-04-26T04:35:27.438Z,22.27
2023-04-26T04:36:27.446Z,22.25
2023-04-26T04:37:27.455Z,22.27
2023-04-26T04:38:27.469Z,22.22
2023-04-26T04:39:27.491Z,22.26
2023-04-26T04:40:27.552Z,22.27
2023-04-26T04:41:27.581Z,22.27
2023-04-26T04:42:27.605Z,22.22
2023-04-26T04:43:27.624Z,22.21
2023-04-26T04:44:27.772Z,22.24
2023-04-26T04:45:27.670Z,22.21
2023-04-26T04:46:27.731Z,22.27
2023-04-26T04:47:27.763Z,22.23
2023-04-26T04:48:27.772Z,22.21
2023-04-26T04:49:27.792Z,22.21
2023-04-26T04:50:27.839Z,22.21
2023-04-26T04:51:27.848Z,22.16
2023-04-26T04:52:27.864Z,22.21
2023-04-26T04:53:27.883Z,22.19
2023-04-26T04:54:27.899Z,22.19
2023-04-26T04:55:27.949Z,22.23
2023-04-26T04:56:27.952Z,22.20
2023-04-26T04:57:27.961Z,22.21
2023-04-26T04:58:27.981Z,22.21
2023-04-26T04:59:28.188Z,22.21
2023-04-26T05:00:28.050Z,22.24
2023-04-26T05:01:28.099Z,22.11
2023-04-26T05:02:28.229Z,22.15
2023-04-26T05:03:28.177Z,22.12
2023-04-26T05:04:28.408Z,22.15
2023-04-26T05:05:28.165Z,22.09
2023-04-26T05:06:28.192Z,22.12
2023-04-26T05:07:29.191Z,22.11
2023-04-26T05:08:28.274Z,22.06
2023-04-26T05:09:28.271Z,22.13
2023-04-26T05:10:28.299Z,22.00
2023-04-26T05:11:28.333Z,22.02
2023-04-26T05:12:28.352Z,21.99
2023-04-26T05:13:28.382Z,22.04
2023-04-26T05:14:28.389Z,22.00
2023-04-26T05:15:28.415Z,22.04
2023-04-26T05:16:28.444Z,21.96
2023-04-26T05:17:28.504Z,22.01
2023-04-26T05:18:28.470Z,21.90
2023-04-26T05:19:28.504Z,21.89
2023-04-26T05:20:28.521Z,21.84
2023-04-26T05:21:28.529Z,21.84
2023-04-26T05:22:28.534Z,21.86
2023-04-26T05:23:28.552Z,21.85
2023-04-26T05:24:28.564Z,21.80
2023-04-26T05:25:28.573Z,21.83
2023-04-26T05:26:28.597Z,22.07
2023-04-26T05:27:28.632Z,22.48
2023-04-26T05:28:28.636Z,22.68
2023-04-26T05:29:28.670Z,23.22
2023-04-26T05:30:28.702Z,22.89
2023-04-26T05:31:28.764Z,23.31
2023-04-26T05:32:28.763Z,23.27
2023-04-26T05:33:28.752Z,23.74
2023-04-26T05:34:28.779Z,23.42
2023-04-26T05:35:28.803Z,23.88
2023-04-26T05:36:29.960Z,24.22
2023-04-26T05:37:28.900Z,25.22
2023-04-26T05:38:28.978Z,25.22
2023-04-26T05:39:29.004Z,25.64
2023-04-26T05:40:29.067Z,24.97
2023-04-26T05:41:29.163Z,24.93
2023-04-26T05:42:29.387Z,24.72
2023-04-26T05:43:29.339Z,24.58
2023-04-26T05:44:29.341Z,24.91
2023-04-26T05:45:29.231Z,25.32
2023-04-26T05:46:29.276Z,24.85
2023-04-26T05:47:29.303Z,24.11
2023-04-26T05:48:29.302Z,23.83
2023-04-26T05:49:29.367Z,23.88
2023-04-26T05:50:29.429Z,24.13
2023-04-26T05:51:29.465Z,24.15
2023-04-26T05:52:29.525Z,24.24
2023-04-26T05:53:29.553Z,24.30
2023-04-26T05:54:29.551Z,24.44
2023-04-26T05:55:29.569Z,24.46
2023-04-26T05:56:29.559Z,24.48
2023-04-26T05:57:29.617Z,24.59
2023-04-26T05:58:29.597Z,24.70
2023-04-26T05:59:29.663Z,24.77
2023-04-26T06:00:29.731Z,24.64
2023-04-26T06:01:29.748Z,24.68
2023-04-26T06:02:29.903Z,24.71
2023-04-26T06:03:30.135Z,24.76
2023-04-26T06:04:30.143Z,24.65
2023-04-26T06:05:30.070Z,24.77
2023-04-26T06:06:29.984Z,24.90
2023-04-26T06:07:30.134Z,24.80
2023-04-26T06:08:30.016Z,24.83
2023-04-26T06:09:30.139Z,24.78
2023-04-26T06:10:30.218Z,24.87
2023-04-26T06:11:30.225Z,24.85
2023-04-26T06:12:30.137Z,24.83
2023-04-26T06:13:30.057Z,24.83
2023-04-26T06:14:30.921Z,24.84
2023-04-26T06:15:30.656Z,24.95
2023-04-26T06:16:30.265Z,25.15
2023-04-26T06:17:30.292Z,25.11
2023-04-26T06:18:30.257Z,25.00
2023-04-26T06:19:30.448Z,25.09
2023-04-26T06:20:30.812Z,25.27
2023-04-26T06:21:30.314Z,25.21
2023-04-26T06:22:30.592Z,25.26
2023-04-26T06:23:30.319Z,25.24
2023-04-26T06:24:30.345Z,25.17
2023-04-26T06:25:30.343Z,25.27
2023-04-26T06:26:30.346Z,25.41
2023-04-26T06:27:30.350Z,25.35
2023-04-26T06:28:30.362Z,25.36
2023-04-26T06:29:30.335Z,25.25
2023-04-26T06:30:30.576Z,25.21
2023-04-26T06:31:30.423Z,24.95
2023-04-26T06:32:30.396Z,24.86
2023-04-26T06:33:30.366Z,24.70
2023-04-26T06:34:30.389Z,24.97
2023-04-26T06:35:30.585Z,25.11
2023-04-26T06:36:30.465Z,25.00
2023-04-26T06:37:30.467Z,24.75
2023-04-26T06:38:30.546Z,24.62
2023-04-26T06:39:30.584Z,24.56
2023-04-26T06:40:31.083Z,24.50
2023-04-26T06:41:30.646Z,23.59
2023-04-26T06:42:30.709Z,23.55
2023-04-26T06:43:30.748Z,23.69
2023-04-26T06:44:30.826Z,23.74
2023-04-26T06:45:31.111Z,23.75
2023-04-26T06:46:30.928Z,23.02
2023-04-26T06:47:31.036Z,23.00
2023-04-26T06:48:30.959Z,22.98
2023-04-26T06:49:30.993Z,22.18
2023-04-26T06:50:31.017Z,21.71
2023-04-26T06:51:31.059Z,20.49
2023-04-26T06:52:31.054Z,19.96
2023-04-26T06:53:31.110Z,19.94
2023-04-26T06:54:31.194Z,20.00
2023-04-26T06:55:32.135Z,20.09
2023-04-26T06:56:31.269Z,20.22
2023-04-26T06:57:31.344Z,20.32
2023-04-26T06:58:31.353Z,20.30
2023-04-26T06:59:31.345Z,20.29
2023-04-26T07:00:31.385Z,20.30
2023-04-26T07:01:31.405Z,20.52
2023-04-26T07:02:31.593Z,20.56
2023-04-26T07:03:31.579Z,20.64
2023-04-26T07:04:31.756Z,20.79
2023-04-26T07:05:31.613Z,20.93
2023-04-26T07:06:31.633Z,20.96
2023-04-26T07:07:31.676Z,20.82
2023-04-26T07:08:31.713Z,20.98
2023-04-26T07:09:31.713Z,21.12
2023-04-26T07:10:32.314Z,20.90
2023-04-26T07:11:31.814Z,20.64
2023-04-26T07:12:31.737Z,20.86
2023-04-26T07:13:31.773Z,20.60
2023-04-26T07:14:31.796Z,20.14
2023-04-26T07:15:31.829Z,19.89
2023-04-26T07:16:31.938Z,20.13
2023-04-26T07:17:31.992Z,19.91
2023-04-26T07:18:31.987Z,20.65
2023-04-26T07:19:31.982Z,20.76
2023-04-26T07:20:32.097Z,20.96
2023-04-26T07:21:32.008Z,21.08
2023-04-26T07:22:32.053Z,20.92
2023-04-26T07:23:32.028Z,21.39
2023-04-26T07:24:32.027Z,21.34
2023-04-26T07:25:32.115Z,21.76
2023-04-26T07:26:32.066Z,21.90
2023-04-26T07:27:32.193Z,20.98
2023-04-26T07:28:32.093Z,20.92
2023-04-26T07:29:32.150Z,21.27
2023-04-26T07:30:32.673Z,21.44
2023-04-26T07:32:32.242Z,21.74
2023-04-26T07:33:32.357Z,21.79
2023-04-26T07:34:32.258Z,21.66
2023-04-26T07:35:32.608Z,21.75
2023-04-26T07:36:32.342Z,21.91
2023-04-26T07:37:32.572Z,21.76
2023-04-26T07:38:32.471Z,21.80
2023-04-26T07:39:32.486Z,21.81
2023-04-26T07:40:32.757Z,22.09
2023-04-26T07:41:32.557Z,21.93
2023-04-26T07:42:32.549Z,21.96
2023-04-26T07:43:32.592Z,21.98
2023-04-26T07:44:32.582Z,21.94
2023-04-26T07:45:32.643Z,21.68
2023-04-26T07:46:32.599Z,21.81
2023-04-26T07:47:32.616Z,21.73
2023-04-26T07:48:32.626Z,21.75
2023-04-26T07:49:32.658Z,21.62
2023-04-26T07:50:33.190Z,21.64
2023-04-26T07:51:32.701Z,21.45
2023-04-26T07:52:32.671Z,21.28
2023-04-26T07:53:32.757Z,21.33
2023-04-26T07:54:32.704Z,21.60
2023-04-26T07:55:33.112Z,21.78
2023-04-26T07:56:32.803Z,21.96
2023-04-26T07:57:32.754Z,21.98
2023-04-26T07:58:32.769Z,22.11
2023-04-26T07:59:32.773Z,22.06
2023-04-26T08:00:33.129Z,22.27
2023-04-26T08:01:32.800Z,22.38
2023-04-26T08:02:43.933Z,22.51
2023-04-26T08:03:33.966Z,22.64
2023-04-26T08:04:33.150Z,22.45
2023-04-26T08:05:33.056Z,22.79
2023-04-26T08:06:32.769Z,22.65
2023-04-26T08:07:32.742Z,22.84
2023-04-26T08:08:32.852Z,22.90
2023-04-26T08:09:32.857Z,22.94
2023-04-26T08:10:32.904Z,22.99
2023-04-26T08:11:32.834Z,22.90
2023-04-26T08:12:32.737Z,22.95
2023-04-26T08:13:32.692Z,23.05
2023-04-26T08:14:32.699Z,23.07
2023-04-26T08:15:33.143Z,23.06
2023-04-26T08:16:32.878Z,22.95
2023-04-26T08:17:32.773Z,23.04
2023-04-26T08:18:32.775Z,23.13
2023-04-26T08:19:32.842Z,23.10
2023-04-26T08:20:32.889Z,23.15
2023-04-26T08:21:32.905Z,22.76
2023-04-26T08:22:32.971Z,23.08
2023-04-26T08:23:32.994Z,23.19
2023-04-26T08:24:33.077Z,23.34
2023-04-26T08:25:33.127Z,23.32
2023-04-26T08:26:33.160Z,23.46
2023-04-26T08:27:33.202Z,23.42
2023-04-26T08:28:33.274Z,23.42
2023-04-26T08:29:33.312Z,23.58
2023-04-26T08:30:33.440Z,23.65
2023-04-26T08:31:33.503Z,23.35
2023-04-26T08:32:33.432Z,23.07
2023-04-26T08:33:33.411Z,22.81
2023-04-26T08:34:33.412Z,23.53
2023-04-26T08:35:33.424Z,23.76
2023-04-26T08:36:33.468Z,23.65
2023-04-26T08:37:33.724Z,23.65
2023-04-26T08:38:33.489Z,23.66
2023-04-26T08:39:33.538Z,23.69
2023-04-26T08:40:33.686Z,23.69
2023-04-26T08:41:33.640Z,23.69
2023-04-26T08:42:33.660Z,23.68
2023-04-26T08:43:33.701Z,23.58
2023-04-26T08:44:33.726Z,23.63
2023-04-26T08:45:33.730Z,23.30
2023-04-26T08:46:33.787Z,23.56
2023-04-26T08:47:33.782Z,23.57
2023-04-26T08:48:33.786Z,23.71
2023-04-26T08:49:33.776Z,23.75
2023-04-26T08:50:34.153Z,23.73
2023-04-26T08:51:33.882Z,23.57
2023-04-26T08:52:33.960Z,23.57
2023-04-26T08:53:34.018Z,23.55
2023-04-26T08:54:34.047Z,23.43
2023-04-26T08:55:34.048Z,23.59
2023-04-26T08:56:34.083Z,23.55
2023-04-26T08:57:34.154Z,23.51
2023-04-26T08:58:34.222Z,23.52
2023-04-26T08:59:34.213Z,23.57
2023-04-26T09:00:34.286Z,23.51
2023-04-26T09:01:34.368Z,23.35
2023-04-26T09:02:34.581Z,23.45
2023-04-26T09:03:34.654Z,23.12
2023-04-26T09:04:34.743Z,23.44
2023-04-26T09:05:34.579Z,23.27
2023-04-26T09:06:34.598Z,23.38
2023-04-26T09:07:34.682Z,23.17
2023-04-26T09:08:34.729Z,23.30
2023-04-26T09:09:34.780Z,23.32
2023-04-26T09:10:34.840Z,23.26
2023-04-26T09:11:34.963Z,23.23
2023-04-26T09:12:34.939Z,23.21
2023-04-26T09:13:34.969Z,23.20
2023-04-26T09:14:35.016Z,23.14
2023-04-26T09:15:35.164Z,22.79
2023-04-26T09:16:35.159Z,22.90
2023-04-26T09:17:35.192Z,22.62
2023-04-26T09:18:35.200Z,22.70
2023-04-26T09:19:35.264Z,22.56
2023-04-26T09:20:35.663Z,22.62
2023-04-26T09:21:35.652Z,22.59
2023-04-26T09:22:35.253Z,22.71
2023-04-26T09:23:35.359Z,22.56
2023-04-26T09:24:35.361Z,22.65
2023-04-26T09:25:35.426Z,21.94
2023-04-26T09:26:35.659Z,21.66
2023-04-26T09:27:35.528Z,21.99
2023-04-26T09:28:35.546Z,22.14
2023-04-26T09:29:35.575Z,22.14
2023-04-26T09:30:35.648Z,22.30
2023-04-26T09:31:35.682Z,21.72
2023-04-26T09:32:35.688Z,22.17
2023-04-26T09:33:35.637Z,22.19
2023-04-26T09:34:35.618Z,22.36
2023-04-26T09:35:35.630Z,22.04
2023-04-26T09:36:35.641Z,22.00
2023-04-26T09:37:39.087Z,21.19
2023-04-26T09:38:36.637Z,21.77
2023-04-26T09:39:35.791Z,21.76
2023-04-26T09:40:35.656Z,21.56
2023-04-26T09:41:35.608Z,20.87
2023-04-26T09:42:35.585Z,21.30
2023-04-26T09:43:35.887Z,20.64
2023-04-26T09:44:35.587Z,21.18
2023-04-26T09:45:35.594Z,20.26
2023-04-26T09:46:35.640Z,21.35
2023-04-26T09:47:35.562Z,21.59
2023-04-26T09:48:35.617Z,20.71
2023-04-26T09:49:35.553Z,20.59
2023-04-26T09:50:35.565Z,21.11
2023-04-26T09:51:35.524Z,20.96
2023-04-26T09:52:35.539Z,19.30
2023-04-26T09:53:35.545Z,20.91
2023-04-26T09:54:35.536Z,17.59
2023-04-26T09:55:36.108Z,19.42
2023-04-26T09:56:35.601Z,19.39
2023-04-26T09:57:35.654Z,19.57
2023-04-26T09:58:35.702Z,19.81
2023-04-26T09:59:35.768Z,19.71
2023-04-26T10:00:35.817Z,19.41
2023-04-26T10:01:35.947Z,19.78
2023-04-26T10:02:36.012Z,19.58
2023-04-26T10:03:36.069Z,19.51
2023-04-26T10:04:36.077Z,19.58
2023-04-26T10:05:35.985Z,19.64
2023-04-26T10:06:35.956Z,19.49
2023-04-26T10:07:35.981Z,19.65
2023-04-26T10:08:36.029Z,19.71
2023-04-26T10:09:36.096Z,19.75
2023-04-26T10:10:36.129Z,20.12
2023-04-26T10:11:36.227Z,20.94
2023-04-26T10:12:36.264Z,21.05
2023-04-26T10:13:36.358Z,21.42
2023-04-26T10:14:36.431Z,21.41
2023-04-26T10:15:36.566Z,21.46
2023-04-26T10:16:36.484Z,21.54
2023-04-26T10:17:36.531Z,21.52
2023-04-26T10:18:36.406Z,21.39
2023-04-26T10:19:36.430Z,21.37
2023-04-26T10:20:36.466Z,21.84
2023-04-26T10:21:36.690Z,21.49
2023-04-26T10:22:36.462Z,20.28
2023-04-26T10:23:36.463Z,20.69
2023-04-26T10:24:36.518Z,20.65
2023-04-26T10:25:36.512Z,20.93
2023-04-26T10:26:36.683Z,21.37
2023-04-26T10:27:36.601Z,21.26
2023-04-26T10:28:36.648Z,21.02
2023-04-26T10:29:36.703Z,20.71
2023-04-26T10:30:36.676Z,20.83
2023-04-26T10:31:36.727Z,20.98
2023-04-26T10:32:36.713Z,21.23
2023-04-26T10:33:36.719Z,25.26
2023-04-26T10:34:36.723Z,23.14
2023-04-26T10:35:36.760Z,22.05
2023-04-26T10:36:37.191Z,21.90
2023-04-26T10:37:36.900Z,22.00
2023-04-26T10:38:36.943Z,22.11
2023-04-26T10:39:37.004Z,22.18
2023-04-26T10:40:37.040Z,22.27
2023-04-26T10:41:37.192Z,22.33
2023-04-26T10:42:37.124Z,22.42
2023-04-26T10:43:37.157Z,22.44
2023-04-26T10:44:37.220Z,22.61
2023-04-26T10:45:37.279Z,22.72
2023-04-26T10:46:37.320Z,22.79
2023-04-26T10:47:37.671Z,22.90
2023-04-26T10:48:37.324Z,22.99
2023-04-26T10:49:37.370Z,23.01
2023-04-26T10:50:37.419Z,22.96
2023-04-26T10:51:37.434Z,22.96
2023-04-26T10:52:37.483Z,22.97
2023-04-26T10:53:37.520Z,22.95
2023-04-26T10:54:37.526Z,22.97
2023-04-26T10:55:37.569Z,22.89
2023-04-26T10:56:37.576Z,22.98
2023-04-26T10:57:37.771Z,22.97
2023-04-26T10:58:37.819Z,22.86
2023-04-26T10:59:51.128Z,22.86
2023-04-26T11:00:38.873Z,22.83
2023-04-26T11:01:37.774Z,22.79
2023-04-26T11:02:37.784Z,22.79
2023-04-26T11:03:38.294Z,22.72
2023-04-26T11:04:37.792Z,22.72
2023-04-26T11:05:37.812Z,22.67
2023-04-26T11:06:37.734Z,22.62
2023-04-26T11:07:37.743Z,22.61
2023-04-26T11:08:37.726Z,22.55
2023-04-26T11:09:37.706Z,22.56
2023-04-26T11:10:37.706Z,22.52
2023-04-26T11:11:37.732Z,22.49
2023-04-26T11:12:37.693Z,22.44
2023-04-26T11:13:37.697Z,22.43
2023-04-26T11:14:37.686Z,22.35
2023-04-26T11:15:37.709Z,22.37
2023-04-26T11:16:37.723Z,22.29
2023-04-26T11:17:37.783Z,22.22
2023-04-26T11:18:37.713Z,22.29
2023-04-26T11:19:37.744Z,22.17
2023-04-26T11:20:37.745Z,22.16
2023-04-26T11:21:37.787Z,22.15
2023-04-26T11:22:37.772Z,22.14
2023-04-26T11:23:37.797Z,22.14
2023-04-26T11:24:37.837Z,22.11
2023-04-26T11:25:37.843Z,22.02
2023-04-26T11:26:37.869Z,22.02
2023-04-26T11:27:37.903Z,21.95
2023-04-26T11:28:37.936Z,21.97
2023-04-26T11:29:37.935Z,21.91
2023-04-26T11:30:37.989Z,21.91
2023-04-26T11:31:38.021Z,21.85
2023-04-26T11:32:38.158Z,21.84
2023-04-26T11:33:38.019Z,21.84
2023-04-26T11:34:38.084Z,21.81
2023-04-26T11:35:38.237Z,21.75
2023-04-26T11:36:38.204Z,21.73
2023-04-26T11:37:38.243Z,21.70
2023-04-26T11:38:38.317Z,21.71
2023-04-26T11:39:38.347Z,21.65
2023-04-26T11:40:38.518Z,21.67
2023-04-26T11:41:38.441Z,21.57
2023-04-26T11:42:38.530Z,21.61
2023-04-26T11:43:38.623Z,21.59
2023-04-26T11:44:38.600Z,21.57
2023-04-26T11:45:38.640Z,21.53
2023-04-26T11:46:38.654Z,21.50
2023-04-26T11:47:38.709Z,21.43
2023-04-26T11:48:38.650Z,21.44
2023-04-26T11:49:38.650Z,21.35
2023-04-26T11:50:38.683Z,21.35
2023-04-26T11:51:38.715Z,21.29
2023-04-26T11:52:38.752Z,21.27
2023-04-26T11:53:38.925Z,21.29
2023-04-26T11:54:38.789Z,21.24
2023-04-26T11:55:38.834Z,21.14
2023-04-26T11:56:38.864Z,21.20
2023-04-26T11:57:38.873Z,21.21
2023-04-26T11:58:38.893Z,21.20
2023-04-26T11:59:38.901Z,21.14
2023-04-26T12:00:38.976Z,21.11
2023-04-26T12:01:39.070Z,21.11
2023-04-26T12:02:39.223Z,21.09
2023-04-26T12:03:39.190Z,21.05
2023-04-26T12:04:39.361Z,20.99
2023-04-26T12:05:39.231Z,20.99
2023-04-26T12:06:39.199Z,21.06
2023-04-26T12:07:39.258Z,20.99
2023-04-26T12:08:39.292Z,20.97
2023-04-26T12:09:39.333Z,21.00
2023-04-26T12:10:39.434Z,20.96
2023-04-26T12:11:39.776Z,20.94
2023-04-26T12:12:39.649Z,20.94
2023-04-26T12:13:39.598Z,20.88
2023-04-26T12:14:39.652Z,20.91
2023-04-26T12:15:39.760Z,20.93
2023-04-26T12:16:39.793Z,20.91
2023-04-26T12:17:39.848Z,20.88
2023-04-26T12:18:39.777Z,20.93
2023-04-26T12:19:39.821Z,20.92
2023-04-26T12:20:39.808Z,20.89
2023-04-26T12:21:39.853Z,20.93
2023-04-26T12:22:39.928Z,20.88
2023-04-26T12:23:39.981Z,20.89
2023-04-26T12:24:40.036Z,20.91
2023-04-26T12:25:40.047Z,20.91
2023-04-26T12:26:40.090Z,20.83
2023-04-26T12:27:40.145Z,20.80
2023-04-26T12:28:40.161Z,20.79
2023-04-26T12:29:40.196Z,20.79
2023-04-26T12:30:40.190Z,20.76
2023-04-26T12:31:40.337Z,20.79
2023-04-26T12:32:40.257Z,20.77
2023-04-26T12:33:40.383Z,20.77
2023-04-26T12:34:40.260Z,20.77
2023-04-26T12:35:40.267Z,20.76
2023-04-26T12:36:40.324Z,20.76
2023-04-26T12:37:40.329Z,20.71
2023-04-26T12:38:40.499Z,20.76
2023-04-26T12:39:40.423Z,20.68
2023-04-26T12:40:40.455Z,20.74
2023-04-26T12:41:40.455Z,20.69
2023-04-26T12:42:40.475Z,20.71
2023-04-26T12:43:40.468Z,20.68
2023-04-26T12:44:40.483Z,20.66
2023-04-26T12:45:40.464Z,20.63
2023-04-26T12:46:40.587Z,20.66
2023-04-26T12:47:40.560Z,20.66
2023-04-26T12:48:40.565Z,20.65
2023-04-26T12:49:40.566Z,20.60
2023-04-26T12:50:40.601Z,20.59
2023-04-26T12:51:40.766Z,20.56
2023-04-26T12:52:40.700Z,20.57
2023-04-26T12:53:40.715Z,20.51
2023-04-26T12:54:40.735Z,20.53
2023-04-26T12:55:40.789Z,20.49
2023-04-26T12:56:41.275Z,20.52
2023-04-26T12:57:40.837Z,20.48
2023-04-26T12:58:40.885Z,20.47
2023-04-26T12:59:40.914Z,20.48
2023-04-26T13:00:42.629Z,20.53
2023-04-26T13:01:41.002Z,20.51
2023-04-26T13:02:41.154Z,20.51
2023-04-26T13:03:41.112Z,20.51
2023-04-26T13:04:41.862Z,20.48
2023-04-26T13:05:40.909Z,20.46
2023-04-26T13:06:40.910Z,20.45
2023-04-26T13:07:40.931Z,20.45
2023-04-26T13:08:40.885Z,20.40
2023-04-26T13:09:40.901Z,20.40
2023-04-26T13:10:40.885Z,20.36
2023-04-26T13:11:40.876Z,20.42
2023-04-26T13:12:40.871Z,20.40
2023-04-26T13:13:44.131Z,20.39
2023-04-26T13:14:40.868Z,20.42
2023-04-26T13:15:40.886Z,20.35
2023-04-26T13:16:40.853Z,20.34
2023-04-26T13:17:40.918Z,20.32
2023-04-26T13:18:40.834Z,20.35
2023-04-26T13:19:40.842Z,20.34
2023-04-26T13:20:40.811Z,20.37
2023-04-26T13:21:41.256Z,20.34
2023-04-26T13:22:40.819Z,20.32
2023-04-26T13:23:40.809Z,20.29
2023-04-26T13:24:40.808Z,20.34
2023-04-26T13:25:40.774Z,20.34